Sugarbush Valley, Vermont
Current Conditions -  °F | °C
As of 1:55 AM on Thursday 27 Nov 2014 (Local Time) from K6B0 Reporting Station
Light Snow Light Snow  
Wind Chill: 23°   Ceiling: 700
Heat Index: 29°   Visibility: 2.5mi
Dew Point: 29°   Wind: 6mph
Humidity: 100%   Direction: 350°N
Pressure: 29.91"   Gusts: NA
Location:  44.1108°N, 72.8612°W
Report Text: K6B0 270655Z AUTO 35005KT 2 1/2SM -SN OVC007 M02/M02 A2991 RMK AO2 T10181018
Loading
Personal Weather Stations






























Interactive Weather Map New forecast layout! Learn more

10-Day Weather Forecast

Advertisements
Track Severe Weather on mobile